createdAt,value
2022-08-05T00:01:27.597Z,26.80
2022-08-05T00:03:57.025Z,26.80
2022-08-05T00:06:32.366Z,26.80
2022-08-05T00:09:00.589Z,26.80
2022-08-05T00:11:34.751Z,26.80
2022-08-05T00:14:02.482Z,26.80
2022-08-05T00:16:52.885Z,26.80
2022-08-05T00:19:24.992Z,26.80
2022-08-05T00:21:59.642Z,26.80
2022-08-05T00:24:30.675Z,26.80
2022-08-05T00:26:59.406Z,26.80
2022-08-05T00:29:27.497Z,26.80
2022-08-05T00:32:12.615Z,26.80
2022-08-05T00:35:04.464Z,26.80
2022-08-05T00:37:50.737Z,26.80
2022-08-05T00:40:17.873Z,26.70
2022-08-05T00:42:54.669Z,26.70
2022-08-05T00:45:28.093Z,26.70
2022-08-05T00:48:07.196Z,26.80
2022-08-05T00:50:34.232Z,26.70
2022-08-05T00:53:00.887Z,26.70
2022-08-05T00:55:42.661Z,26.70
2022-08-05T00:58:12.200Z,26.70
2022-08-05T01:00:40.575Z,26.70
2022-08-05T01:03:10.224Z,26.70
2022-08-05T01:05:39.609Z,26.70
2022-08-05T01:08:40.068Z,26.70
2022-08-05T01:11:22.110Z,26.70
2022-08-05T01:14:08.923Z,26.70
2022-08-05T01:16:49.146Z,26.70
2022-08-05T01:20:01.638Z,26.70
2022-08-05T01:22:30.820Z,26.70
2022-08-05T01:25:10.529Z,26.70
2022-08-05T01:27:50.625Z,26.70
2022-08-05T01:30:34.470Z,26.70
2022-08-05T01:33:08.189Z,26.70
2022-08-05T01:35:50.863Z,26.70
2022-08-05T01:38:24.680Z,26.70
2022-08-05T01:40:58.963Z,26.70
2022-08-05T01:43:27.753Z,26.70
2022-08-05T01:45:57.619Z,26.70
2022-08-05T01:48:27.148Z,26.60
2022-08-05T01:50:56.217Z,26.60
2022-08-05T01:53:54.482Z,26.70
2022-08-05T01:56:12.985Z,26.70
2022-08-05T01:58:44.826Z,26.60
2022-08-05T02:01:14.072Z,26.60
2022-08-05T02:03:48.462Z,26.70
2022-08-05T02:06:33.566Z,26.60
2022-08-05T02:09:04.569Z,26.70
2022-08-05T02:11:52.597Z,26.60
2022-08-05T02:14:32.325Z,26.60
2022-08-05T02:17:23.487Z,26.60
2022-08-05T02:20:07.100Z,26.70
2022-08-05T02:22:41.766Z,26.60
2022-08-05T02:25:14.374Z,26.60
2022-08-05T02:27:58.499Z,26.60
2022-08-05T02:30:35.006Z,26.60
2022-08-05T02:33:04.684Z,26.60
2022-08-05T02:35:37.378Z,26.60
2022-08-05T02:38:09.408Z,26.60
2022-08-05T02:40:40.886Z,26.60
2022-08-05T02:43:08.789Z,26.60
2022-08-05T02:45:52.452Z,26.60
2022-08-05T02:48:21.372Z,26.60
2022-08-05T02:50:59.313Z,26.60
2022-08-05T02:53:26.729Z,26.60
2022-08-05T02:56:00.008Z,26.60
2022-08-05T02:58:27.494Z,26.60
2022-08-05T03:00:58.773Z,26.60
2022-08-05T03:03:28.005Z,26.50
2022-08-05T03:06:55.041Z,26.60
2022-08-05T03:08:52.123Z,26.60
2022-08-05T03:11:55.217Z,26.60
2022-08-05T03:14:07.941Z,26.60
2022-08-05T03:16:35.785Z,26.30
2022-08-05T03:19:04.294Z,25.80
2022-08-05T03:21:49.619Z,25.50
2022-08-05T03:24:29.255Z,25.30
2022-08-05T03:26:58.917Z,25.30
2022-08-05T03:29:45.215Z,25.30
2022-08-05T03:32:14.262Z,25.20
2022-08-05T03:34:43.011Z,25.10
2022-08-05T03:37:19.454Z,25.10
2022-08-05T03:39:59.104Z,25.10
2022-08-05T03:42:29.219Z,25.10
2022-08-05T03:44:59.249Z,25.00
2022-08-05T03:47:30.441Z,25.00
2022-08-05T03:50:01.873Z,25.00
2022-08-05T03:52:38.731Z,24.90
2022-08-05T03:56:04.332Z,24.90
2022-08-05T03:58:17.730Z,24.80
2022-08-05T04:04:33.809Z,24.80
2022-08-05T04:07:01.580Z,24.80
2022-08-05T04:09:31.413Z,24.80
2022-08-05T04:12:03.867Z,24.80
2022-08-05T04:14:50.973Z,24.70
2022-08-05T04:21:06.631Z,24.70
2022-08-05T04:24:05.643Z,24.70
2022-08-05T04:26:22.102Z,24.60
2022-08-05T04:28:51.185Z,24.70
2022-08-05T04:31:19.101Z,24.60
2022-08-05T04:33:54.450Z,24.60
2022-08-05T04:36:49.612Z,24.60
2022-08-05T04:39:18.031Z,24.60
2022-08-05T04:41:45.825Z,24.70
2022-08-05T04:44:14.837Z,24.70
2022-08-05T04:46:47.703Z,24.60
2022-08-05T04:49:15.421Z,24.60
2022-08-05T04:51:43.879Z,24.60
2022-08-05T04:54:10.547Z,24.60
2022-08-05T04:56:39.237Z,24.60
2022-08-05T04:59:21.978Z,24.60
2022-08-05T05:02:07.209Z,24.60
2022-08-05T05:04:35.490Z,24.60
2022-08-05T05:07:05.015Z,24.60
2022-08-05T05:09:37.449Z,24.60
2022-08-05T05:12:05.266Z,24.60
2022-08-05T05:14:33.028Z,24.60
2022-08-05T05:17:03.797Z,24.60
2022-08-05T05:19:37.296Z,24.60
2022-08-05T05:22:24.192Z,24.60
2022-08-05T05:24:57.037Z,24.50
2022-08-05T05:27:25.202Z,24.50
2022-08-05T05:30:15.674Z,24.50
2022-08-05T05:32:56.445Z,24.50
2022-08-05T05:35:23.263Z,24.80
2022-08-05T05:37:59.399Z,24.90
2022-08-05T05:40:27.843Z,25.10
2022-08-05T05:42:55.067Z,25.10
2022-08-05T05:45:24.704Z,25.20
2022-08-05T05:48:06.831Z,25.30
2022-08-05T05:50:41.073Z,25.30
2022-08-05T05:53:21.600Z,25.40
2022-08-05T05:55:52.236Z,25.40
2022-08-05T05:58:32.002Z,25.40
2022-08-05T06:01:12.486Z,25.50
2022-08-05T06:04:00.400Z,25.50
2022-08-05T06:06:31.442Z,25.50
2022-08-05T06:09:01.609Z,25.50
2022-08-05T06:11:30.716Z,25.60
2022-08-05T06:13:57.437Z,25.60
2022-08-05T06:16:28.927Z,25.60
2022-08-05T06:19:00.213Z,25.60
2022-08-05T06:21:36.026Z,25.60
2022-08-05T06:24:11.832Z,25.60
2022-08-05T06:26:51.105Z,25.60
2022-08-05T06:29:43.007Z,25.60
2022-08-05T06:32:26.217Z,25.70
2022-08-05T06:34:57.255Z,25.70
2022-08-05T06:37:58.326Z,25.70
2022-08-05T06:40:14.007Z,25.70
2022-08-05T06:42:45.630Z,25.70
2022-08-05T06:45:20.794Z,25.70
2022-08-05T06:48:35.892Z,25.80
2022-08-05T06:50:34.781Z,25.80
2022-08-05T06:53:11.614Z,25.80
2022-08-05T06:55:48.312Z,25.80
2022-08-05T06:58:30.037Z,25.70
2022-08-05T07:01:02.768Z,25.80
2022-08-05T07:03:32.955Z,25.80
2022-08-05T07:06:01.996Z,25.80
2022-08-05T07:08:32.978Z,25.80
2022-08-05T07:10:59.784Z,25.80
2022-08-05T07:13:59.460Z,25.80
2022-08-05T07:17:59.398Z,25.80
2022-08-05T07:20:16.806Z,25.80
2022-08-05T07:22:28.215Z,25.80
2022-08-05T07:25:23.720Z,25.80
2022-08-05T07:27:58.239Z,25.80
2022-08-05T07:30:32.694Z,25.90
2022-08-05T07:33:05.181Z,25.90
2022-08-05T07:36:01.994Z,25.90
2022-08-05T07:38:32.138Z,25.90
2022-08-05T07:42:07.128Z,25.90
2022-08-05T07:43:52.366Z,25.90
2022-08-05T07:46:25.287Z,25.90
2022-08-05T07:49:04.114Z,25.90
2022-08-05T07:51:37.044Z,25.90
2022-08-05T07:54:08.293Z,25.90
2022-08-05T07:57:00.122Z,25.90
2022-08-05T07:59:38.885Z,25.90
2022-08-05T08:02:16.397Z,25.90
2022-08-05T08:04:48.632Z,25.90
2022-08-05T08:07:16.154Z,25.90
2022-08-05T08:09:45.011Z,25.90
2022-08-05T08:12:35.310Z,26.00
2022-08-05T08:15:04.356Z,26.00
2022-08-05T08:17:32.547Z,26.00
2022-08-05T08:20:23.030Z,26.00
2022-08-05T08:22:56.946Z,26.00
2022-08-05T08:25:26.861Z,25.90
2022-08-05T08:28:02.656Z,26.00
2022-08-05T08:30:37.644Z,26.00
2022-08-05T08:33:14.483Z,26.00
2022-08-05T08:35:52.771Z,26.00
2022-08-05T08:38:35.987Z,26.00
2022-08-05T08:41:10.647Z,26.00
2022-08-05T08:45:18.900Z,26.00
2022-08-05T08:46:31.004Z,26.00
2022-08-05T08:49:09.622Z,26.00
2022-08-05T08:52:04.274Z,26.00
2022-08-05T08:54:33.209Z,26.00
2022-08-05T08:57:05.183Z,26.00
2022-08-05T08:59:38.550Z,26.00
2022-08-05T09:02:08.880Z,26.00
2022-08-05T09:04:58.164Z,26.00
2022-08-05T09:07:28.387Z,26.00
2022-08-05T09:09:55.980Z,26.00
2022-08-05T09:12:27.114Z,26.00
2022-08-05T09:15:06.415Z,26.00
2022-08-05T09:17:41.243Z,26.00
2022-08-05T09:20:11.557Z,26.00
2022-08-05T09:23:08.983Z,26.00
2022-08-05T09:26:01.307Z,26.10
2022-08-05T09:28:32.257Z,26.00
2022-08-05T09:31:22.806Z,26.10
2022-08-05T09:33:59.148Z,26.10
2022-08-05T09:36:38.464Z,26.10
2022-08-05T09:39:22.466Z,26.10
2022-08-05T09:41:56.797Z,26.10
2022-08-05T09:44:36.609Z,26.00
2022-08-05T09:47:10.487Z,26.10
2022-08-05T09:50:01.271Z,26.10
2022-08-05T09:52:34.871Z,26.10
2022-08-05T09:55:58.616Z,26.00
2022-08-05T09:57:54.550Z,26.00
2022-08-05T10:00:25.787Z,26.10
2022-08-05T10:02:58.339Z,26.10
2022-08-05T10:05:27.680Z,26.10
2022-08-05T10:08:37.479Z,26.10
2022-08-05T10:11:13.589Z,26.10
2022-08-05T10:13:47.144Z,26.10
2022-08-05T10:16:41.963Z,26.10
2022-08-05T10:19:23.502Z,26.10
2022-08-05T10:21:58.926Z,26.10
2022-08-05T10:24:27.000Z,26.10
2022-08-05T10:26:56.151Z,26.10
2022-08-05T10:30:07.243Z,26.10
2022-08-05T10:32:54.350Z,26.10
2022-08-05T10:35:03.298Z,26.10
2022-08-05T10:37:37.203Z,26.10
2022-08-05T10:40:20.120Z,26.20
2022-08-05T10:43:01.062Z,26.10
2022-08-05T10:45:39.800Z,26.10
2022-08-05T10:48:58.086Z,26.20
2022-08-05T10:51:57.699Z,26.20
2022-08-05T10:54:56.083Z,26.20
2022-08-05T10:57:30.936Z,26.20
2022-08-05T11:00:20.011Z,26.20
2022-08-05T11:03:23.856Z,26.20
2022-08-05T11:06:15.301Z,26.20
2022-08-05T11:09:31.988Z,26.20
2022-08-05T11:12:26.028Z,26.20
2022-08-05T11:15:22.957Z,26.20
2022-08-05T11:18:09.473Z,26.20
2022-08-05T11:20:46.149Z,26.20
2022-08-05T11:24:05.537Z,26.20
2022-08-05T11:26:28.627Z,26.20
2022-08-05T11:29:06.788Z,26.20
2022-08-05T11:31:58.375Z,26.20
2022-08-05T11:34:52.063Z,26.20
2022-08-05T11:38:36.453Z,26.20
2022-08-05T11:41:03.666Z,26.20
2022-08-05T11:44:04.314Z,26.20
2022-08-05T11:46:35.746Z,26.20
2022-08-05T11:49:04.458Z,26.20
2022-08-05T11:51:44.077Z,26.20
2022-08-05T11:54:33.369Z,26.20
2022-08-05T11:57:08.866Z,26.20
2022-08-05T11:59:50.238Z,26.30
2022-08-05T12:02:30.057Z,26.30
2022-08-05T12:04:59.578Z,26.30
2022-08-05T12:08:03.702Z,26.40
2022-08-05T12:10:21.332Z,26.40
2022-08-05T12:12:59.879Z,26.40
2022-08-05T12:15:38.688Z,26.50
2022-08-05T12:18:10.659Z,26.60
2022-08-05T12:20:38.551Z,26.70
2022-08-05T12:23:11.940Z,26.70
2022-08-05T12:25:56.977Z,26.70
2022-08-05T12:28:37.788Z,26.80
2022-08-05T12:31:05.137Z,26.80
2022-08-05T12:33:36.518Z,26.80
2022-08-05T12:36:08.574Z,26.80
2022-08-05T12:38:39.569Z,26.80
2022-08-05T12:41:16.143Z,26.90
2022-08-05T12:43:54.385Z,26.90
2022-08-05T12:46:28.129Z,26.90
2022-08-05T12:49:14.372Z,26.90
2022-08-05T12:52:13.013Z,26.90
2022-08-05T12:54:40.939Z,26.90
2022-08-05T12:57:10.974Z,26.90
2022-08-05T13:01:58.298Z,27.00
2022-08-05T13:02:41.283Z,27.00
2022-08-05T13:05:12.644Z,27.10
2022-08-05T13:08:00.630Z,27.00
2022-08-05T13:10:28.794Z,27.00
2022-08-05T13:12:58.139Z,27.00
2022-08-05T13:15:41.829Z,27.10
2022-08-05T13:18:19.554Z,27.10
2022-08-05T13:20:48.956Z,27.10
2022-08-05T13:23:18.193Z,27.10
2022-08-05T13:25:52.503Z,27.10
2022-08-05T13:28:26.934Z,27.10
2022-08-05T13:30:53.799Z,27.10
2022-08-05T13:34:24.308Z,27.10
2022-08-05T13:36:10.494Z,27.10
2022-08-05T13:38:38.526Z,27.10
2022-08-05T13:41:10.988Z,27.10
2022-08-05T13:43:44.467Z,27.10
2022-08-05T13:46:16.162Z,27.10
2022-08-05T13:48:58.835Z,27.10
2022-08-05T13:51:40.292Z,27.10
2022-08-05T13:54:12.798Z,27.10
2022-08-05T13:56:44.666Z,27.10
2022-08-05T13:59:19.601Z,27.10
2022-08-05T14:01:56.759Z,27.10
2022-08-05T14:04:50.172Z,27.20
2022-08-05T14:07:26.423Z,27.20
2022-08-05T14:10:19.254Z,27.20
2022-08-05T14:12:55.943Z,27.10
2022-08-05T14:16:05.573Z,27.10
2022-08-05T14:18:15.262Z,27.10
2022-08-05T14:20:47.132Z,27.10
2022-08-05T14:23:23.470Z,27.00
2022-08-05T14:25:54.274Z,26.90
2022-08-05T14:28:26.536Z,27.00
2022-08-05T14:30:54.555Z,26.90
2022-08-05T14:33:23.188Z,26.90
2022-08-05T14:35:51.612Z,26.90
2022-08-05T14:38:27.636Z,26.90
2022-08-05T14:41:00.452Z,26.90
2022-08-05T14:44:01.833Z,26.90
2022-08-05T14:46:14.475Z,26.90
2022-08-05T14:48:41.681Z,27.00
2022-08-05T14:51:15.373Z,27.00
2022-08-05T14:53:46.029Z,27.00
2022-08-05T14:56:32.773Z,27.00
2022-08-05T14:58:59.903Z,27.10
2022-08-05T15:01:47.140Z,27.10
2022-08-05T15:04:14.375Z,27.10
2022-08-05T15:06:41.390Z,27.10
2022-08-05T15:09:15.861Z,27.10
2022-08-05T15:11:53.273Z,27.20
2022-08-05T15:14:34.907Z,27.20
2022-08-05T15:17:14.573Z,27.20
2022-08-05T15:19:56.077Z,27.20
2022-08-05T15:22:26.882Z,27.20
2022-08-05T15:24:54.888Z,27.10
2022-08-05T15:27:21.584Z,27.10
2022-08-05T15:29:52.268Z,27.20
2022-08-05T15:32:21.001Z,27.10
2022-08-05T15:34:54.306Z,27.10
2022-08-05T15:38:08.752Z,27.10
2022-08-05T15:40:59.161Z,27.10
2022-08-05T15:43:00.454Z,27.10
2022-08-05T15:45:38.053Z,27.10
2022-08-05T15:48:05.694Z,27.10
2022-08-05T15:50:33.726Z,27.10
2022-08-05T15:53:04.184Z,27.10
2022-08-05T15:56:03.936Z,27.10
2022-08-05T15:58:19.674Z,27.10
2022-08-05T16:00:57.076Z,27.10
2022-08-05T16:03:36.664Z,27.20
2022-08-05T16:06:11.379Z,27.10
2022-08-05T16:08:38.825Z,27.20
2022-08-05T16:11:07.377Z,27.20
2022-08-05T16:13:35.300Z,27.10
2022-08-05T16:16:05.760Z,27.10
2022-08-05T16:18:33.223Z,27.10
2022-08-05T16:21:03.949Z,27.10
2022-08-05T16:23:53.352Z,27.10
2022-08-05T16:26:18.382Z,27.10
2022-08-05T16:28:47.963Z,27.10
2022-08-05T16:31:18.965Z,27.10
2022-08-05T16:33:46.249Z,27.10
2022-08-05T16:36:13.427Z,27.10
2022-08-05T16:38:54.913Z,27.10
2022-08-05T16:42:13.652Z,27.10
2022-08-05T16:44:10.855Z,27.10
2022-08-05T16:46:41.124Z,27.10
2022-08-05T16:49:10.084Z,27.10
2022-08-05T16:51:42.607Z,27.20
2022-08-05T16:54:23.974Z,27.20
2022-08-05T16:56:55.463Z,27.20
2022-08-05T16:59:22.814Z,27.20
2022-08-05T17:01:54.825Z,27.20
2022-08-05T17:04:27.371Z,27.20
2022-08-05T17:07:01.848Z,27.20
2022-08-05T17:09:31.019Z,27.30
2022-08-05T17:12:17.327Z,27.30
2022-08-05T17:14:49.501Z,27.30
2022-08-05T17:17:16.389Z,27.30
2022-08-05T17:19:46.431Z,27.40
2022-08-05T17:22:21.976Z,27.30
2022-08-05T17:24:57.494Z,27.30
2022-08-05T17:27:33.534Z,27.40
2022-08-05T17:30:02.664Z,27.40
2022-08-05T17:32:30.273Z,27.40
2022-08-05T17:35:00.810Z,27.40
2022-08-05T17:37:41.051Z,27.40
2022-08-05T17:40:14.488Z,27.40
2022-08-05T17:42:50.586Z,27.50
2022-08-05T17:45:24.748Z,27.50
2022-08-05T17:47:55.757Z,27.40
2022-08-05T17:50:30.521Z,27.40
2022-08-05T17:53:04.664Z,27.50
2022-08-05T17:55:37.570Z,27.50
2022-08-05T17:58:06.968Z,27.50
2022-08-05T18:00:36.219Z,27.50
2022-08-05T18:03:08.003Z,27.50
2022-08-05T18:05:36.122Z,27.50
2022-08-05T18:08:03.505Z,27.50
2022-08-05T18:10:32.283Z,27.50
2022-08-05T18:13:01.963Z,27.50
2022-08-05T18:15:35.071Z,27.50
2022-08-05T18:18:11.078Z,27.50
2022-08-05T18:20:38.381Z,27.50
2022-08-05T18:23:11.536Z,27.50
2022-08-05T18:25:44.939Z,27.50
2022-08-05T18:28:16.639Z,27.50
2022-08-05T18:30:51.077Z,27.60
2022-08-05T18:33:22.999Z,27.60
2022-08-05T18:36:03.339Z,27.50
2022-08-05T18:38:35.043Z,27.60
2022-08-05T18:41:58.533Z,27.60
2022-08-05T18:43:51.067Z,27.60
2022-08-05T18:46:20.210Z,27.60
2022-08-05T18:48:48.328Z,27.60
2022-08-05T18:52:03.229Z,27.60
2022-08-05T18:54:28.330Z,27.60
2022-08-05T18:56:58.135Z,27.60
2022-08-05T18:59:43.128Z,27.60
2022-08-05T19:02:26.599Z,27.60
2022-08-05T19:05:03.031Z,27.60
2022-08-05T19:07:45.541Z,27.60
2022-08-05T19:10:14.231Z,27.60
2022-08-05T19:12:40.869Z,27.60
2022-08-05T19:15:57.908Z,27.60
2022-08-05T19:17:59.814Z,27.60
2022-08-05T19:20:41.457Z,27.60
2022-08-05T19:24:04.139Z,27.60
2022-08-05T19:26:02.223Z,27.60
2022-08-05T19:28:31.019Z,27.60
2022-08-05T19:31:00.176Z,27.20
2022-08-05T19:33:36.044Z,27.00
2022-08-05T19:36:06.897Z,26.80
2022-08-05T19:38:36.948Z,26.60
2022-08-05T19:41:07.022Z,26.50
2022-08-05T19:44:06.101Z,26.50
2022-08-05T19:46:30.668Z,26.40
2022-08-05T19:49:01.175Z,26.40
2022-08-05T19:52:04.662Z,26.30
2022-08-05T19:54:27.094Z,26.30
2022-08-05T19:57:06.568Z,26.30
2022-08-05T20:00:01.302Z,26.10
2022-08-05T20:02:25.940Z,25.90
2022-08-05T20:04:53.739Z,25.70
2022-08-05T20:07:47.469Z,25.70
2022-08-05T20:10:11.479Z,25.60
2022-08-05T20:12:47.542Z,25.50
2022-08-05T20:15:48.836Z,25.50
2022-08-05T20:18:10.906Z,25.50
2022-08-05T20:20:56.063Z,25.50
2022-08-05T20:23:40.121Z,25.40
2022-08-05T20:26:15.400Z,25.20
2022-08-05T20:28:44.612Z,25.10
2022-08-05T20:31:11.538Z,25.00
2022-08-05T20:33:38.241Z,25.00
2022-08-05T20:36:11.046Z,24.80
2022-08-05T20:38:40.885Z,24.70
2022-08-05T20:41:26.848Z,24.70
2022-08-05T20:43:59.877Z,24.60
2022-08-05T20:46:29.975Z,24.60
2022-08-05T20:48:56.834Z,24.40
2022-08-05T20:51:23.463Z,24.40
2022-08-05T20:53:56.199Z,24.50
2022-08-05T20:56:29.927Z,24.40
2022-08-05T20:59:11.228Z,24.30
2022-08-05T21:01:41.375Z,24.20
2022-08-05T21:04:10.518Z,24.10
2022-08-05T21:06:38.292Z,23.90
2022-08-05T21:09:14.337Z,23.90
2022-08-05T21:12:06.938Z,23.80
2022-08-05T21:14:32.012Z,23.80
2022-08-05T21:17:05.852Z,23.90
2022-08-05T21:19:46.977Z,23.90
2022-08-05T21:22:17.730Z,23.80
2022-08-05T21:24:48.847Z,23.70
2022-08-05T21:27:18.197Z,23.60
2022-08-05T21:29:48.490Z,23.70
2022-08-05T21:32:20.144Z,23.70
2022-08-05T21:34:55.854Z,23.60
2022-08-05T21:37:35.035Z,23.60
2022-08-05T21:40:13.641Z,23.60
2022-08-05T21:42:44.412Z,23.40
2022-08-05T21:45:12.228Z,23.50
2022-08-05T21:47:56.018Z,23.60
2022-08-05T21:50:24.334Z,23.40
2022-08-05T21:52:51.096Z,23.50
2022-08-05T21:55:42.692Z,23.50
2022-08-05T21:58:06.713Z,23.30
2022-08-05T22:00:37.009Z,23.30
2022-08-05T22:03:03.779Z,23.30
2022-08-05T22:05:30.404Z,23.30
2022-08-05T22:08:22.090Z,23.30
2022-08-05T22:10:51.178Z,23.20
2022-08-05T22:14:31.558Z,23.30
2022-08-05T22:16:15.675Z,23.30
2022-08-05T22:18:52.495Z,23.40
2022-08-05T22:21:20.014Z,23.70
2022-08-05T22:24:09.043Z,24.00
2022-08-05T22:26:58.796Z,24.30
2022-08-05T22:29:30.798Z,24.50
2022-08-05T22:32:03.351Z,24.80
2022-08-05T22:34:31.174Z,24.90
2022-08-05T22:36:58.411Z,25.00
2022-08-05T22:39:32.587Z,25.00
2022-08-05T22:42:11.384Z,25.00
2022-08-05T22:44:40.995Z,25.00
2022-08-05T22:47:13.667Z,25.10
2022-08-05T22:50:21.778Z,25.10
2022-08-05T22:52:43.958Z,25.10
2022-08-05T22:55:19.287Z,25.10
2022-08-05T22:57:53.165Z,25.10
2022-08-05T23:00:21.467Z,25.10
2022-08-05T23:02:49.355Z,25.20
2022-08-05T23:05:16.379Z,25.20
2022-08-05T23:07:44.833Z,25.20
2022-08-05T23:10:13.006Z,25.30
2022-08-05T23:12:39.859Z,25.30
2022-08-05T23:15:10.224Z,25.30
2022-08-05T23:18:00.823Z,25.30
2022-08-05T23:20:25.417Z,25.30
2022-08-05T23:22:56.053Z,25.30
2022-08-05T23:25:52.910Z,25.40
2022-08-05T23:28:10.717Z,25.40
2022-08-05T23:30:40.604Z,25.40
2022-08-05T23:33:22.404Z,25.40
2022-08-05T23:36:00.007Z,25.40
2022-08-05T23:38:26.867Z,25.40
2022-08-05T23:40:53.940Z,25.40
2022-08-05T23:43:25.335Z,25.40
2022-08-05T23:46:05.209Z,25.40
2022-08-05T23:49:00.490Z,25.40
2022-08-05T23:51:54.315Z,25.50
2022-08-05T23:54:34.247Z,25.50
2022-08-05T23:57:05.849Z,25.50
